createdAt,value
2018-09-18T00:01:28.197Z,12.73
2018-09-18T00:03:56.667Z,12.50
2018-09-18T00:06:24.893Z,13.25
2018-09-18T00:08:53.070Z,13.73
2018-09-18T00:11:21.251Z,11.77
2018-09-18T00:13:49.496Z,11.43
2018-09-18T00:16:20.682Z,11.27
2018-09-18T00:18:48.893Z,13.27
2018-09-18T00:21:17.115Z,11.35
2018-09-18T00:23:46.250Z,14.65
2018-09-18T00:26:14.477Z,12.35
2018-09-18T00:28:42.664Z,13.20
2018-09-18T00:31:10.948Z,13.67
2018-09-18T00:33:39.204Z,15.17
2018-09-18T00:36:07.551Z,13.68
2018-09-18T00:38:35.966Z,14.93
2018-09-18T00:41:04.192Z,10.30
2018-09-18T00:43:32.441Z,11.90
2018-09-18T00:46:03.704Z,13.90
2018-09-18T00:48:31.938Z,14.55
2018-09-18T00:51:00.961Z,14.05
2018-09-18T00:53:29.235Z,13.30
2018-09-18T00:55:57.439Z,13.18
2018-09-18T00:58:25.895Z,10.95
2018-09-18T01:00:57.624Z,12.87
2018-09-18T01:03:26.388Z,15.75
2018-09-18T01:05:54.640Z,13.97
2018-09-18T01:08:22.880Z,18.07
2018-09-18T01:10:51.203Z,11.37
2018-09-18T01:13:19.433Z,13.00
2018-09-18T01:15:55.712Z,13.20
2018-09-18T01:18:28.388Z,13.20
2018-09-18T01:20:56.593Z,12.23
2018-09-18T01:23:24.860Z,17.30
2018-09-18T01:25:53.104Z,10.77
2018-09-18T01:28:21.355Z,12.35
2018-09-18T01:30:49.594Z,13.00
2018-09-18T01:33:17.804Z,14.83
2018-09-18T01:35:46.935Z,15.47
2018-09-18T01:38:15.174Z,10.63
2018-09-18T01:40:43.383Z,14.23
2018-09-18T01:43:12.024Z,18.80
2018-09-18T01:45:40.265Z,14.73
2018-09-18T01:48:08.456Z,12.58
2018-09-18T01:50:36.834Z,18.00
2018-09-18T01:53:05.174Z,16.20
2018-09-18T01:55:33.372Z,15.47
2018-09-18T02:00:38.067Z,10.98
2018-09-18T02:03:06.384Z,15.80
2018-09-18T02:05:34.579Z,16.93
2018-09-18T02:08:03.183Z,17.10
2018-09-18T02:10:32.322Z,15.70
2018-09-18T02:13:00.557Z,12.45
2018-09-18T02:15:28.968Z,11.10
2018-09-18T02:17:57.336Z,12.80
2018-09-18T02:20:25.616Z,11.03
2018-09-18T02:22:53.808Z,14.93
2018-09-18T02:25:21.991Z,16.70
2018-09-18T02:27:50.227Z,15.40
2018-09-18T02:30:18.442Z,19.00
2018-09-18T02:32:46.682Z,18.80
2018-09-18T02:35:14.861Z,16.93
2018-09-18T02:37:43.103Z,14.37
2018-09-18T02:40:11.304Z,17.83
2018-09-18T02:42:39.546Z,14.27
2018-09-18T02:45:07.777Z,14.20
2018-09-18T02:47:39.112Z,13.53
2018-09-18T02:50:07.337Z,12.00
2018-09-18T02:52:36.151Z,14.25
2018-09-18T02:55:04.363Z,14.33
2018-09-18T02:57:32.584Z,14.28
2018-09-18T03:00:01.055Z,12.15
2018-09-18T03:02:32.448Z,15.20
2018-09-18T03:05:01.444Z,16.95
2018-09-18T03:07:29.676Z,17.47
2018-09-18T03:09:57.846Z,15.88
2018-09-18T03:12:26.062Z,21.87
2018-09-18T03:14:54.244Z,17.50
2018-09-18T03:17:22.479Z,13.05
2018-09-18T03:19:50.905Z,17.48
2018-09-18T03:22:20.551Z,20.88
2018-09-18T03:24:48.741Z,16.63
2018-09-18T03:27:17.191Z,23.50
2018-09-18T03:29:45.683Z,13.00
2018-09-18T03:32:15.223Z,16.27
2018-09-18T03:34:43.791Z,16.55
2018-09-18T03:37:12.029Z,15.00
2018-09-18T03:39:41.029Z,15.74
2018-09-18T03:42:09.239Z,12.03
2018-09-18T03:44:37.464Z,16.33
2018-09-18T03:47:05.728Z,19.83
2018-09-18T03:49:33.967Z,16.25
2018-09-18T03:52:02.240Z,14.53
2018-09-18T03:54:30.459Z,15.50
2018-09-18T03:56:58.687Z,21.48
2018-09-18T03:59:26.945Z,16.27
2018-09-18T04:01:55.139Z,14.07
2018-09-18T04:04:23.460Z,17.07
2018-09-18T04:06:51.710Z,18.87
2018-09-18T04:09:19.945Z,16.03
2018-09-18T04:11:48.174Z,16.87
2018-09-18T04:14:16.632Z,13.80
2018-09-18T04:16:44.819Z,16.50
2018-09-18T04:19:13.041Z,17.43
2018-09-18T04:21:41.940Z,17.50
2018-09-18T04:24:10.160Z,16.23
2018-09-18T04:26:40.148Z,13.60
2018-09-18T04:29:09.768Z,20.48
2018-09-18T04:31:39.491Z,18.85
2018-09-18T04:34:15.545Z,18.33
2018-09-18T04:36:43.736Z,14.15
2018-09-18T04:39:13.454Z,17.73
2018-09-18T04:41:41.800Z,15.43
2018-09-18T04:44:11.092Z,17.40
2018-09-18T04:46:39.317Z,22.73
2018-09-18T04:49:07.519Z,18.32
2018-09-18T04:51:39.244Z,17.00
2018-09-18T04:54:07.470Z,19.20
2018-09-18T04:56:35.645Z,21.73
2018-09-18T04:59:03.896Z,24.53
2018-09-18T05:01:32.102Z,23.62
2018-09-18T05:04:00.478Z,18.32
2018-09-18T05:06:28.708Z,16.02
2018-09-18T05:08:56.927Z,19.83
2018-09-18T05:11:25.344Z,17.13
2018-09-18T05:13:53.592Z,16.33
2018-09-18T05:16:21.906Z,20.23
2018-09-18T05:18:50.169Z,19.33
2018-09-18T05:21:18.418Z,24.70
2018-09-18T05:23:46.723Z,18.07
2018-09-18T05:26:14.988Z,20.17
2018-09-18T05:28:43.284Z,19.80
2018-09-18T05:31:11.535Z,16.87
2018-09-18T05:33:40.006Z,15.53
2018-09-18T05:36:11.396Z,16.10
2018-09-18T05:38:40.257Z,19.07
2018-09-18T05:41:08.491Z,19.30
2018-09-18T05:43:36.701Z,18.70
2018-09-18T05:46:05.242Z,26.77
2018-09-18T05:48:35.412Z,24.85
2018-09-18T05:51:07.396Z,26.70
2018-09-18T05:53:35.734Z,21.20
2018-09-18T05:56:04.016Z,26.25
2018-09-18T05:58:32.299Z,23.63
2018-09-18T06:01:00.620Z,24.07
2018-09-18T06:03:29.793Z,28.87
2018-09-18T06:05:58.098Z,30.52
2018-09-18T06:08:29.433Z,27.15
2018-09-18T06:10:57.704Z,26.83
2018-09-18T06:13:26.391Z,31.83
2018-09-18T06:15:55.087Z,40.40
2018-09-18T06:18:23.304Z,28.52
2018-09-18T06:20:54.883Z,32.07
2018-09-18T06:23:23.103Z,28.73
2018-09-18T06:25:51.336Z,39.40
2018-09-18T06:28:20.409Z,36.63
2018-09-18T06:30:48.984Z,34.47
2018-09-18T06:33:17.220Z,37.07
2018-09-18T06:35:45.566Z,28.73
2018-09-18T06:38:13.764Z,29.85
2018-09-18T06:40:42.043Z,34.80
2018-09-18T06:43:10.265Z,33.28
2018-09-18T06:45:38.503Z,40.47
2018-09-18T06:48:06.775Z,37.17
2018-09-18T06:50:34.939Z,32.38
2018-09-18T06:53:07.924Z,31.57
2018-09-18T06:55:36.097Z,31.40
2018-09-18T06:58:04.548Z,30.82
2018-09-18T07:00:32.752Z,50.93
2018-09-18T07:03:01.047Z,32.08
2018-09-18T07:05:29.279Z,31.87
2018-09-18T07:07:57.515Z,42.20
2018-09-18T07:10:25.720Z,34.78
2018-09-18T07:12:54.576Z,31.63
2018-09-18T07:15:22.795Z,40.37
2018-09-18T07:17:51.239Z,42.97
2018-09-18T07:20:19.548Z,34.27
2018-09-18T07:22:51.750Z,33.58
2018-09-18T07:25:19.940Z,43.07
2018-09-18T07:27:49.117Z,31.80
2018-09-18T07:30:17.317Z,39.30
2018-09-18T07:32:45.573Z,26.65
2018-09-18T07:35:14.017Z,32.85
2018-09-18T07:37:54.519Z,28.30
2018-09-18T07:40:22.779Z,30.47
2018-09-18T07:42:51.199Z,36.13
2018-09-18T07:45:19.416Z,35.23
2018-09-18T07:47:47.592Z,31.90
2018-09-18T07:50:15.812Z,26.42
2018-09-18T07:52:44.027Z,35.33
2018-09-18T07:55:12.260Z,30.73
2018-09-18T07:57:40.434Z,28.83
2018-09-18T08:00:08.739Z,27.23
2018-09-18T08:02:36.983Z,25.15
2018-09-18T08:05:05.445Z,30.93
2018-09-18T08:07:33.653Z,26.97
2018-09-18T08:10:01.889Z,28.13
2018-09-18T08:12:30.077Z,40.30
2018-09-18T08:14:58.291Z,23.65
2018-09-18T08:17:26.533Z,23.92
2018-09-18T08:19:54.747Z,23.43
2018-09-18T08:22:22.948Z,23.98
2018-09-18T08:24:51.206Z,25.03
2018-09-18T08:27:19.453Z,21.83
2018-09-18T08:29:47.677Z,30.73
2018-09-18T08:32:15.945Z,21.27
2018-09-18T08:34:44.216Z,28.00
2018-09-18T08:37:12.524Z,24.80
2018-09-18T08:39:43.887Z,23.80
2018-09-18T08:42:12.121Z,21.67
2018-09-18T08:44:40.321Z,20.40
2018-09-18T08:47:09.113Z,17.85
2018-09-18T08:49:37.381Z,22.07
2018-09-18T08:52:05.746Z,18.67
2018-09-18T08:54:41.824Z,19.62
2018-09-18T08:57:10.011Z,19.03
2018-09-18T08:59:38.353Z,18.62
2018-09-18T09:02:06.535Z,21.57
2018-09-18T09:04:34.672Z,18.67
2018-09-18T09:07:03.040Z,15.05
2018-09-18T09:09:31.309Z,19.33
2018-09-18T09:11:59.593Z,22.47
2018-09-18T09:14:27.908Z,21.13
2018-09-18T09:16:56.036Z,13.50
2018-09-18T09:19:24.255Z,15.80
2018-09-18T09:21:52.560Z,17.17
2018-09-18T09:24:35.673Z,13.37
2018-09-18T09:27:04.048Z,10.83
2018-09-18T09:29:32.278Z,14.97
2018-09-18T09:32:00.998Z,10.72
2018-09-18T09:34:29.292Z,13.50
2018-09-18T09:36:57.553Z,42.43
2018-09-18T09:39:25.997Z,8.48
2018-09-18T09:41:54.199Z,12.73
2018-09-18T09:44:22.425Z,18.82
2018-09-18T09:46:51.308Z,11.10
2018-09-18T09:49:19.551Z,10.90
2018-09-18T09:51:47.811Z,11.30
2018-09-18T09:54:19.523Z,9.97
2018-09-18T09:56:47.800Z,12.50
2018-09-18T09:59:16.017Z,18.80
2018-09-18T10:01:49.566Z,11.00
2018-09-18T10:04:17.812Z,9.37
2018-09-18T10:06:46.593Z,14.20
2018-09-18T10:09:14.828Z,11.93
2018-09-18T10:11:43.063Z,13.33
2018-09-18T10:14:11.398Z,12.93
2018-09-18T10:16:39.606Z,10.47
2018-09-18T10:19:07.897Z,10.70
2018-09-18T10:21:36.068Z,12.13
2018-09-18T10:24:04.348Z,13.10
2018-09-18T10:26:32.545Z,11.43
2018-09-18T10:29:01.207Z,10.63
2018-09-18T10:31:29.487Z,10.38
2018-09-18T10:33:57.720Z,13.90
2018-09-18T10:36:25.889Z,13.70
2018-09-18T10:38:54.213Z,9.93
2018-09-18T10:41:23.006Z,11.73
2018-09-18T10:43:51.092Z,9.33
2018-09-18T10:46:19.861Z,13.53
2018-09-18T10:48:49.955Z,9.18
2018-09-18T10:51:18.492Z,8.80
2018-09-18T10:53:46.765Z,12.23
2018-09-18T10:56:25.671Z,10.20
2018-09-18T10:58:57.633Z,13.17
2018-09-18T11:01:25.817Z,11.07
2018-09-18T11:03:54.018Z,9.30
2018-09-18T11:06:22.217Z,13.32
2018-09-18T11:08:50.625Z,7.90
2018-09-18T11:11:18.832Z,8.50
2018-09-18T11:13:47.050Z,8.60
2018-09-18T11:16:15.325Z,8.43
2018-09-18T11:18:43.528Z,6.60
2018-09-18T11:21:11.848Z,7.93
2018-09-18T11:23:40.151Z,6.10
2018-09-18T11:26:08.331Z,6.77
2018-09-18T11:28:40.381Z,5.78
2018-09-18T11:31:08.729Z,6.10
2018-09-18T11:33:37.710Z,7.20
2018-09-18T11:36:06.523Z,8.43
2018-09-18T11:38:34.692Z,5.87
2018-09-18T11:41:09.795Z,6.50
2018-09-18T11:48:42.760Z,7.90
2018-09-18T11:51:11.158Z,9.60
2018-09-18T11:53:39.536Z,7.77
2018-09-18T11:56:08.701Z,8.75
2018-09-18T11:58:36.885Z,6.60
2018-09-18T12:01:05.337Z,8.47
2018-09-18T12:03:33.554Z,4.63
2018-09-18T12:06:01.932Z,6.80
2018-09-18T12:08:30.146Z,5.57
2018-09-18T12:10:58.424Z,7.63
2018-09-18T12:13:26.609Z,6.53
2018-09-18T12:15:54.825Z,7.90
2018-09-18T12:18:23.101Z,5.63
2018-09-18T12:20:51.318Z,6.07
2018-09-18T12:23:19.529Z,6.90
2018-09-18T12:25:47.738Z,8.50
2018-09-18T12:28:20.384Z,4.97
2018-09-18T12:30:48.578Z,9.28
2018-09-18T12:33:17.661Z,7.97
2018-09-18T12:35:46.093Z,7.00
2018-09-18T12:38:14.200Z,6.53
2018-09-18T12:40:42.510Z,5.22
2018-09-18T12:43:13.701Z,5.07
2018-09-18T12:45:41.930Z,10.20
2018-09-18T12:48:10.205Z,4.37
2018-09-18T12:50:38.612Z,5.95
2018-09-18T12:53:07.377Z,9.13
2018-09-18T12:55:35.585Z,8.00
2018-09-18T12:58:03.963Z,4.85
2018-09-18T13:00:32.295Z,6.03
2018-09-18T13:03:00.523Z,8.03
2018-09-18T13:05:28.788Z,5.23
2018-09-18T13:07:57.067Z,7.23
2018-09-18T13:10:25.688Z,6.37
2018-09-18T13:12:53.931Z,5.37
2018-09-18T13:15:25.660Z,7.33
2018-09-18T13:17:53.860Z,4.07
2018-09-18T13:20:22.229Z,4.90
2018-09-18T13:22:50.424Z,5.70
2018-09-18T13:25:18.692Z,6.57
2018-09-18T13:27:46.956Z,5.10
2018-09-18T13:30:19.378Z,7.23
2018-09-18T13:32:47.668Z,4.60
2018-09-18T13:35:15.844Z,7.85
2018-09-18T13:37:44.050Z,4.63
2018-09-18T13:40:12.271Z,5.70
2018-09-18T13:42:40.497Z,4.80
2018-09-18T13:45:08.718Z,7.87
2018-09-18T13:47:36.964Z,4.70
2018-09-18T13:50:05.187Z,4.87
2018-09-18T13:52:36.288Z,4.63
2018-09-18T13:55:04.616Z,4.73
2018-09-18T13:57:32.853Z,4.97
2018-09-18T14:00:01.108Z,5.23
2018-09-18T14:02:29.390Z,7.13
2018-09-18T14:04:57.932Z,7.87
2018-09-18T14:07:26.680Z,6.87
2018-09-18T14:09:54.952Z,11.23
2018-09-18T14:12:23.137Z,6.13
2018-09-18T14:14:51.891Z,8.03
2018-09-18T14:17:20.092Z,7.63
2018-09-18T14:19:48.300Z,9.10
2018-09-18T14:22:16.529Z,8.85
2018-09-18T14:24:44.756Z,5.10
2018-09-18T14:27:14.837Z,6.45
2018-09-18T14:29:46.433Z,9.10
2018-09-18T14:32:14.726Z,8.97
2018-09-18T14:34:42.886Z,4.57
2018-09-18T14:37:11.669Z,6.12
2018-09-18T14:39:39.829Z,9.47
2018-09-18T14:42:08.079Z,4.30
2018-09-18T14:44:44.316Z,5.78
2018-09-18T14:47:13.004Z,5.97
2018-09-18T14:49:41.244Z,6.00
2018-09-18T14:52:09.736Z,6.17
2018-09-18T14:54:37.989Z,6.47
2018-09-18T14:57:06.216Z,6.10
2018-09-18T14:59:38.791Z,7.57
2018-09-18T15:02:07.904Z,6.75
2018-09-18T15:04:36.121Z,4.90
2018-09-18T15:07:04.401Z,7.90
2018-09-18T15:09:33.144Z,3.85
2018-09-18T15:12:01.352Z,6.62
2018-09-18T15:14:34.088Z,9.78
2018-09-18T15:17:06.330Z,4.65
2018-09-18T15:19:35.404Z,5.53
2018-09-18T15:22:04.074Z,4.67
2018-09-18T15:24:32.255Z,4.80
2018-09-18T15:27:00.466Z,7.22
2018-09-18T15:29:28.939Z,6.08
2018-09-18T15:31:57.140Z,3.37
2018-09-18T15:34:25.419Z,6.80
2018-09-18T15:36:53.648Z,8.83
2018-09-18T15:39:21.858Z,3.60
2018-09-18T15:41:50.266Z,9.47
2018-09-18T15:44:18.584Z,3.70
2018-09-18T15:46:46.866Z,3.80
2018-09-18T15:49:15.123Z,3.33
2018-09-18T15:51:43.591Z,3.20
2018-09-18T15:54:11.838Z,5.47
2018-09-18T15:56:40.023Z,3.67
2018-09-18T15:59:08.431Z,6.27
2018-09-18T16:01:36.779Z,3.13
2018-09-18T16:04:05.325Z,4.13
2018-09-18T16:06:33.641Z,4.90
2018-09-18T16:09:02.345Z,9.50
2018-09-18T16:11:30.612Z,3.93
2018-09-18T16:13:58.870Z,4.10
2018-09-18T16:16:30.786Z,4.03
2018-09-18T16:18:59.011Z,4.53
2018-09-18T16:21:27.761Z,10.25
2018-09-18T16:23:55.976Z,4.00
2018-09-18T16:26:24.165Z,6.73
2018-09-18T16:28:52.430Z,5.90
2018-09-18T16:31:20.637Z,4.15
2018-09-18T16:33:48.852Z,7.63
2018-09-18T16:36:17.363Z,4.43
2018-09-18T16:38:45.825Z,5.03
2018-09-18T16:41:14.295Z,5.80
2018-09-18T16:43:42.524Z,7.47
2018-09-18T16:46:14.901Z,4.37
2018-09-18T16:48:43.149Z,7.17
2018-09-18T16:51:11.399Z,15.48
2018-09-18T16:53:39.600Z,21.53
2018-09-18T16:56:07.819Z,17.17
2018-09-18T16:58:36.096Z,20.15
2018-09-18T17:01:04.515Z,10.57
2018-09-18T17:03:32.740Z,18.57
2018-09-18T17:06:01.031Z,15.07
2018-09-18T17:08:29.299Z,8.08
2018-09-18T17:10:57.545Z,7.33
2018-09-18T17:13:26.523Z,8.60
2018-09-18T17:15:54.815Z,13.50
2018-09-18T17:18:23.058Z,9.93
2018-09-18T17:20:51.350Z,7.86
2018-09-18T17:23:19.613Z,8.70
2018-09-18T17:25:47.779Z,13.30
2018-09-18T17:28:16.043Z,10.60
2018-09-18T17:30:44.308Z,25.68
2018-09-18T17:33:16.150Z,10.37
2018-09-18T17:38:19.900Z,19.93
2018-09-18T17:40:48.108Z,32.50
2018-09-18T17:43:17.164Z,9.20
2018-09-18T17:45:45.398Z,11.37
2018-09-18T17:48:17.843Z,14.45
2018-09-18T17:50:46.041Z,18.67
2018-09-18T17:53:14.364Z,18.95
2018-09-18T17:55:42.640Z,13.58
2018-09-18T17:58:10.940Z,13.72
2018-09-18T18:00:39.240Z,14.80
2018-09-18T18:03:07.409Z,11.10
2018-09-18T18:05:36.580Z,15.30
2018-09-18T18:08:04.881Z,10.70
2018-09-18T18:10:33.056Z,9.88
2018-09-18T18:13:01.992Z,12.37
2018-09-18T18:15:30.272Z,12.80
2018-09-18T18:17:58.448Z,12.45
2018-09-18T18:20:27.078Z,9.13
2018-09-18T18:22:55.544Z,13.90
2018-09-18T18:25:23.859Z,14.60
2018-09-18T18:27:52.079Z,10.77
2018-09-18T18:30:20.412Z,15.80
2018-09-18T18:32:59.608Z,11.23
2018-09-18T18:35:28.533Z,8.07
2018-09-18T18:37:56.752Z,13.70
2018-09-18T18:40:24.972Z,9.03
2018-09-18T18:47:55.565Z,8.47
2018-09-18T18:50:23.919Z,22.93
2018-09-18T18:52:52.157Z,11.23
2018-09-18T18:55:20.921Z,12.25
2018-09-18T18:57:49.120Z,12.90
2018-09-18T19:00:17.382Z,9.38
2018-09-18T19:02:45.582Z,10.77
2018-09-18T19:05:13.928Z,16.47
2018-09-18T19:07:42.094Z,7.03
2018-09-18T19:10:10.560Z,13.88
2018-09-18T19:12:38.737Z,11.75
2018-09-18T19:15:06.938Z,11.10
2018-09-18T19:17:35.264Z,9.97
2018-09-18T19:20:03.893Z,22.30
2018-09-18T19:22:32.776Z,13.30
2018-09-18T19:25:01.000Z,11.70
2018-09-18T19:27:29.187Z,10.88
2018-09-18T19:29:57.847Z,11.55
2018-09-18T19:32:26.077Z,9.08
2018-09-18T19:34:54.564Z,12.57
2018-09-18T19:37:22.751Z,15.38
2018-09-18T19:39:51.010Z,13.13
2018-09-18T19:42:19.180Z,12.50
2018-09-18T19:44:47.453Z,10.90
2018-09-18T19:47:15.850Z,12.43
2018-09-18T19:49:44.077Z,11.80
2018-09-18T19:52:12.281Z,16.10
2018-09-18T19:54:41.296Z,12.17
2018-09-18T19:57:09.526Z,19.50
2018-09-18T19:59:37.735Z,10.13
2018-09-18T20:02:06.912Z,10.30
2018-09-18T20:04:35.245Z,15.40
2018-09-18T20:07:03.605Z,16.90
2018-09-18T20:09:32.046Z,12.10
2018-09-18T20:12:00.243Z,10.77
2018-09-18T20:14:28.493Z,15.32
2018-09-18T20:16:56.787Z,11.10
2018-09-18T20:19:25.088Z,16.90
2018-09-18T20:21:53.325Z,11.75
2018-09-18T20:24:21.633Z,14.43
2018-09-18T20:26:49.829Z,15.98
2018-09-18T20:29:18.178Z,13.87
2018-09-18T20:31:46.434Z,12.97
2018-09-18T20:34:15.480Z,12.63
2018-09-18T20:36:43.729Z,13.63
2018-09-18T20:39:12.386Z,13.28
2018-09-18T20:41:40.661Z,17.03
2018-09-18T20:44:08.880Z,11.80
2018-09-18T20:46:37.032Z,10.90
2018-09-18T20:51:34.932Z,12.87
2018-09-18T20:54:03.233Z,17.17
2018-09-18T20:56:31.406Z,16.87
2018-09-18T20:58:59.761Z,11.50
2018-09-18T21:01:28.043Z,9.73
2018-09-18T21:03:56.415Z,10.80
2018-09-18T21:06:28.499Z,12.67
2018-09-18T21:08:57.424Z,12.17
2018-09-18T21:11:25.749Z,12.50
2018-09-18T21:13:54.883Z,10.38
2018-09-18T21:16:23.142Z,12.23
2018-09-18T21:18:51.389Z,9.78
2018-09-18T21:21:22.748Z,15.95
2018-09-18T21:23:51.044Z,10.47
2018-09-18T21:26:20.243Z,13.50
2018-09-18T21:28:48.875Z,11.83
2018-09-18T21:31:17.249Z,12.10
2018-09-18T21:33:45.451Z,18.43
2018-09-18T21:36:13.649Z,13.97
2018-09-18T21:38:41.852Z,9.90
2018-09-18T21:41:10.087Z,15.00
2018-09-18T21:43:38.307Z,15.50
2018-09-18T21:46:06.480Z,11.30
2018-09-18T21:48:35.040Z,12.63
2018-09-18T21:51:14.376Z,10.67
2018-09-18T21:53:42.643Z,9.80
2018-09-18T21:56:11.552Z,16.52
2018-09-18T21:58:39.752Z,14.50
2018-09-18T22:01:07.949Z,11.33
2018-09-18T22:03:36.442Z,10.13
2018-09-18T22:06:04.702Z,9.53
2018-09-18T22:08:32.857Z,8.97
2018-09-18T22:11:01.050Z,13.33
2018-09-18T22:13:29.262Z,8.98
2018-09-18T22:15:57.495Z,10.85
2018-09-18T22:18:25.676Z,11.43
2018-09-18T22:20:53.914Z,11.10
2018-09-18T22:23:22.141Z,14.30
2018-09-18T22:25:50.327Z,12.77
2018-09-18T22:28:18.568Z,12.93
2018-09-18T22:30:46.969Z,9.87
2018-09-18T22:33:15.201Z,18.50
2018-09-18T22:35:43.404Z,13.50
2018-09-18T22:38:11.678Z,14.13
2018-09-18T22:40:39.857Z,9.20
2018-09-18T22:43:08.101Z,16.90
2018-09-18T22:45:36.409Z,10.00
2018-09-18T22:48:04.720Z,11.83
2018-09-18T22:50:32.961Z,8.20
2018-09-18T22:53:01.205Z,11.23
2018-09-18T22:55:29.365Z,8.90
2018-09-18T22:57:57.590Z,9.37
2018-09-18T23:00:25.774Z,11.33
2018-09-18T23:02:53.953Z,8.57
2018-09-18T23:05:22.180Z,11.53
2018-09-18T23:07:51.265Z,9.30
2018-09-18T23:10:19.507Z,9.93
2018-09-18T23:12:48.512Z,10.10
2018-09-18T23:15:16.764Z,8.93
2018-09-18T23:17:45.046Z,13.62
2018-09-18T23:20:13.499Z,9.40
2018-09-18T23:22:45.436Z,12.23
2018-09-18T23:25:13.958Z,21.10
2018-09-18T23:27:42.148Z,10.13
2018-09-18T23:30:10.400Z,8.55
2018-09-18T23:32:39.161Z,12.30
2018-09-18T23:35:07.365Z,12.03
2018-09-18T23:37:35.572Z,17.73
2018-09-18T23:40:03.847Z,12.75
2018-09-18T23:42:32.042Z,11.67
2018-09-18T23:45:00.261Z,12.50
2018-09-18T23:47:28.556Z,12.97
2018-09-18T23:49:56.816Z,12.53
2018-09-18T23:52:25.068Z,14.53
2018-09-18T23:54:53.302Z,17.52
2018-09-18T23:57:21.486Z,18.80
2018-09-18T23:59:49.711Z,12.90
